createdAt,value
2022-11-09T00:00:05.969Z,1.40
2022-11-09T00:02:32.700Z,1.88
2022-11-09T00:04:59.182Z,1.30
2022-11-09T00:07:25.565Z,1.67
2022-11-09T00:09:52.020Z,1.40
2022-11-09T00:12:18.398Z,1.45
2022-11-09T00:14:44.754Z,1.42
2022-11-09T00:17:11.166Z,1.25
2022-11-09T00:19:37.535Z,1.50
2022-11-09T00:22:04.039Z,1.30
2022-11-09T00:24:30.561Z,1.08
2022-11-09T00:26:56.958Z,1.38
2022-11-09T00:29:23.470Z,1.65
2022-11-09T00:31:50.454Z,1.10
2022-11-09T00:34:17.096Z,1.20
2022-11-09T00:36:43.649Z,1.20
2022-11-09T00:39:10.021Z,1.30
2022-11-09T00:41:36.366Z,1.30
2022-11-09T00:44:02.967Z,1.27
2022-11-09T00:46:29.823Z,1.20
2022-11-09T00:48:56.508Z,1.02
2022-11-09T00:51:22.883Z,1.38
2022-11-09T00:53:53.877Z,1.02
2022-11-09T00:56:21.384Z,1.13
2022-11-09T00:58:47.729Z,1.35
2022-11-09T01:01:17.833Z,1.25
2022-11-09T01:03:45.330Z,0.93
2022-11-09T01:06:22.967Z,1.25
2022-11-09T01:08:49.738Z,1.10
2022-11-09T01:11:18.193Z,1.17
2022-11-09T01:13:45.651Z,1.10
2022-11-09T01:16:15.357Z,1.30
2022-11-09T01:18:42.238Z,1.17
2022-11-09T01:21:11.518Z,1.38
2022-11-09T01:23:40.390Z,1.23
2022-11-09T01:26:09.234Z,1.20
2022-11-09T01:28:36.027Z,1.20
2022-11-09T01:31:05.120Z,1.40
2022-11-09T01:33:32.242Z,1.20
2022-11-09T01:36:03.709Z,1.52
2022-11-09T01:38:30.180Z,1.38
2022-11-09T01:40:56.782Z,1.30
2022-11-09T01:43:25.067Z,1.27
2022-11-09T01:46:14.126Z,1.13
2022-11-09T01:49:03.555Z,1.10
2022-11-09T01:51:36.183Z,1.50
2022-11-09T01:54:10.676Z,1.27
2022-11-09T01:56:38.094Z,1.20
2022-11-09T01:59:11.355Z,1.60
2022-11-09T02:01:37.972Z,1.30
2022-11-09T02:04:22.879Z,1.40
2022-11-09T02:06:50.446Z,1.10
2022-11-09T02:09:26.686Z,1.13
2022-11-09T02:11:53.078Z,1.40
2022-11-09T02:14:22.732Z,1.20
2022-11-09T02:16:49.877Z,1.30
2022-11-09T02:19:16.418Z,1.20
2022-11-09T02:21:42.872Z,1.05
2022-11-09T02:24:09.450Z,1.42
2022-11-09T02:26:47.722Z,1.13
2022-11-09T02:29:18.651Z,1.45
2022-11-09T02:31:57.323Z,1.30
2022-11-09T02:34:25.267Z,1.33
2022-11-09T02:36:52.042Z,1.80
2022-11-09T02:39:21.253Z,1.13
2022-11-09T02:42:15.766Z,1.20
2022-11-09T02:44:51.798Z,1.27
2022-11-09T02:47:18.118Z,1.40
2022-11-09T02:49:44.448Z,1.25
2022-11-09T02:52:10.931Z,1.15
2022-11-09T02:54:37.529Z,1.50
2022-11-09T02:57:03.999Z,1.33
2022-11-09T02:59:30.412Z,1.20
2022-11-09T03:01:56.731Z,1.40
2022-11-09T03:04:23.084Z,1.20
2022-11-09T03:06:49.539Z,1.27
2022-11-09T03:09:16.783Z,1.20
2022-11-09T03:11:43.706Z,1.27
2022-11-09T03:14:10.500Z,1.30
2022-11-09T03:16:38.482Z,1.48
2022-11-09T03:19:06.039Z,1.20
2022-11-09T03:21:32.597Z,1.05
2022-11-09T03:23:59.083Z,1.33
2022-11-09T03:26:26.832Z,1.05
2022-11-09T03:28:53.192Z,1.23
2022-11-09T03:31:19.648Z,1.35
2022-11-09T03:33:46.039Z,1.50
2022-11-09T03:36:12.678Z,1.55
2022-11-09T03:38:39.317Z,1.20
2022-11-09T03:41:05.722Z,1.05
2022-11-09T03:43:32.076Z,1.02
2022-11-09T03:45:58.505Z,1.50
2022-11-09T03:48:25.018Z,1.25
2022-11-09T03:50:51.792Z,1.10
2022-11-09T03:53:18.516Z,1.25
2022-11-09T03:55:45.809Z,1.25
2022-11-09T03:58:15.538Z,1.60
2022-11-09T04:00:42.013Z,1.48
2022-11-09T04:03:08.429Z,1.45
2022-11-09T04:05:34.761Z,1.60
2022-11-09T04:08:01.773Z,1.40
2022-11-09T04:10:28.192Z,1.65
2022-11-09T04:12:54.637Z,1.98
2022-11-09T04:15:21.460Z,1.20
2022-11-09T04:17:55.330Z,1.30
2022-11-09T04:20:21.699Z,1.30
2022-11-09T04:22:54.951Z,1.88
2022-11-09T04:25:21.343Z,1.35
2022-11-09T04:27:47.740Z,1.25
2022-11-09T04:30:14.238Z,1.60
2022-11-09T04:32:40.727Z,1.80
2022-11-09T04:35:07.654Z,1.40
2022-11-09T04:37:34.001Z,1.42
2022-11-09T04:40:00.397Z,1.30
2022-11-09T04:42:26.762Z,1.35
2022-11-09T04:44:53.139Z,1.55
2022-11-09T04:47:19.484Z,1.70
2022-11-09T04:49:46.345Z,1.40
2022-11-09T04:52:12.863Z,2.05
2022-11-09T04:54:39.202Z,1.30
2022-11-09T04:57:05.520Z,1.55
2022-11-09T04:59:32.036Z,1.27
2022-11-09T05:01:58.387Z,1.60
2022-11-09T05:04:24.942Z,1.33
2022-11-09T05:06:51.500Z,1.60
2022-11-09T05:09:17.856Z,1.45
2022-11-09T05:11:44.162Z,1.50
2022-11-09T05:14:10.781Z,1.42
2022-11-09T05:16:37.343Z,1.50
2022-11-09T05:19:03.730Z,1.25
2022-11-09T05:21:31.432Z,1.50
2022-11-09T05:24:00.926Z,1.33
2022-11-09T05:26:30.321Z,1.70
2022-11-09T05:28:59.161Z,1.30
2022-11-09T05:31:27.122Z,1.48
2022-11-09T05:33:54.711Z,1.30
2022-11-09T05:36:21.853Z,1.13
2022-11-09T05:38:48.915Z,1.65
2022-11-09T05:41:16.113Z,1.17
2022-11-09T05:43:48.356Z,1.02
2022-11-09T05:46:16.334Z,1.50
2022-11-09T05:48:43.710Z,1.35
2022-11-09T05:51:13.605Z,1.30
2022-11-09T05:53:45.196Z,1.42
2022-11-09T05:56:13.900Z,1.40
2022-11-09T05:58:42.144Z,1.45
2022-11-09T06:01:11.577Z,1.50
2022-11-09T06:03:39.079Z,1.35
2022-11-09T06:06:08.914Z,1.20
2022-11-09T06:08:35.835Z,1.20
2022-11-09T06:11:05.993Z,1.38
2022-11-09T06:13:32.862Z,1.15
2022-11-09T06:16:01.021Z,1.75
2022-11-09T06:18:29.767Z,1.30
2022-11-09T06:20:58.584Z,1.35
2022-11-09T06:23:25.743Z,1.40
2022-11-09T06:26:13.222Z,1.90
2022-11-09T06:28:41.048Z,1.20
2022-11-09T06:31:13.344Z,1.08
2022-11-09T06:33:39.961Z,1.25
2022-11-09T06:36:06.818Z,1.52
2022-11-09T06:38:33.117Z,1.38
2022-11-09T06:41:02.695Z,1.38
2022-11-09T06:43:29.426Z,1.20
2022-11-09T06:45:56.026Z,1.55
2022-11-09T06:48:22.901Z,1.77
2022-11-09T06:50:49.434Z,1.38
2022-11-09T06:53:17.661Z,1.52
2022-11-09T06:55:50.217Z,1.60
2022-11-09T06:58:17.833Z,1.50
2022-11-09T07:00:45.217Z,1.38
2022-11-09T07:03:16.390Z,1.38
2022-11-09T07:05:43.198Z,1.60
2022-11-09T07:08:10.128Z,1.50
2022-11-09T07:10:37.280Z,1.60
2022-11-09T07:13:04.681Z,1.55
2022-11-09T07:15:31.660Z,1.90
2022-11-09T07:18:02.650Z,1.80
2022-11-09T07:20:30.616Z,1.90
2022-11-09T07:22:57.035Z,1.67
2022-11-09T07:25:25.118Z,1.35
2022-11-09T07:27:51.899Z,1.33
2022-11-09T07:30:18.754Z,1.45
2022-11-09T07:35:32.717Z,1.48
2022-11-09T07:38:00.591Z,1.55
2022-11-09T07:40:27.095Z,1.48
2022-11-09T07:42:53.404Z,1.45
2022-11-09T07:45:19.697Z,1.63
2022-11-09T07:47:45.995Z,1.60
2022-11-09T07:50:12.532Z,1.90
2022-11-09T07:52:38.918Z,1.75
2022-11-09T07:55:06.069Z,1.55
2022-11-09T07:57:32.738Z,1.52
2022-11-09T07:59:59.205Z,1.73
2022-11-09T08:02:25.838Z,1.33
2022-11-09T08:04:55.289Z,1.42
2022-11-09T08:07:23.717Z,1.17
2022-11-09T08:09:50.063Z,1.20
2022-11-09T08:12:16.426Z,1.85
2022-11-09T08:14:45.864Z,1.30
2022-11-09T08:17:12.442Z,1.88
2022-11-09T08:19:39.105Z,1.58
2022-11-09T08:22:06.784Z,1.17
2022-11-09T08:24:34.658Z,1.03
2022-11-09T08:27:00.966Z,1.23
2022-11-09T08:29:27.251Z,1.20
2022-11-09T08:31:53.630Z,2.17
2022-11-09T08:34:20.042Z,1.40
2022-11-09T08:36:46.445Z,1.00
2022-11-09T08:39:13.010Z,1.13
2022-11-09T08:41:39.508Z,1.13
2022-11-09T08:44:06.079Z,1.20
2022-11-09T08:46:35.806Z,1.30
2022-11-09T08:49:06.685Z,1.13
2022-11-09T08:51:33.208Z,1.30
2022-11-09T08:53:59.638Z,1.60
2022-11-09T08:56:26.064Z,1.40
2022-11-09T08:58:52.633Z,1.08
2022-11-09T09:01:19.254Z,1.73
2022-11-09T09:03:46.845Z,1.27
2022-11-09T09:06:15.555Z,1.33
2022-11-09T09:08:42.091Z,1.00
2022-11-09T09:11:09.118Z,1.33
2022-11-09T09:13:39.124Z,1.30
2022-11-09T09:16:14.411Z,1.60
2022-11-09T09:18:41.016Z,1.30
2022-11-09T09:21:10.474Z,1.60
2022-11-09T09:23:39.306Z,1.55
2022-11-09T09:26:06.301Z,1.17
2022-11-09T09:28:32.927Z,1.33
2022-11-09T09:31:00.774Z,1.63
2022-11-09T09:33:28.168Z,1.10
2022-11-09T09:35:58.805Z,1.40
2022-11-09T09:38:26.662Z,1.30
2022-11-09T09:41:01.755Z,1.98
2022-11-09T09:43:42.555Z,1.10
2022-11-09T09:46:33.401Z,1.65
2022-11-09T09:49:29.642Z,1.10
2022-11-09T09:52:18.091Z,1.20
2022-11-09T09:54:53.139Z,1.20
2022-11-09T09:57:22.678Z,1.80
2022-11-09T09:59:54.940Z,1.13
2022-11-09T10:02:29.758Z,1.77
2022-11-09T10:05:01.943Z,1.60
2022-11-09T10:07:34.911Z,1.35
2022-11-09T10:10:26.763Z,1.30
2022-11-09T10:13:14.806Z,1.85
2022-11-09T10:15:50.275Z,1.55
2022-11-09T10:18:26.034Z,1.52
2022-11-09T10:21:11.352Z,1.40
2022-11-09T10:23:54.310Z,1.10
2022-11-09T10:26:28.173Z,2.15
2022-11-09T10:29:15.487Z,1.70
2022-11-09T10:31:45.661Z,1.23
2022-11-09T10:34:23.483Z,1.17
2022-11-09T10:37:15.251Z,1.13
2022-11-09T10:39:51.915Z,1.05
2022-11-09T10:42:18.346Z,1.00
2022-11-09T10:44:44.688Z,1.00
2022-11-09T10:47:16.806Z,0.90
2022-11-09T10:49:43.441Z,1.73
2022-11-09T10:52:44.302Z,1.48
2022-11-09T10:55:32.630Z,1.15
2022-11-09T10:58:03.625Z,1.23
2022-11-09T11:00:30.308Z,1.42
2022-11-09T11:02:57.318Z,1.00
2022-11-09T11:05:26.520Z,1.20
2022-11-09T11:07:52.992Z,1.50
2022-11-09T11:10:20.990Z,1.63
2022-11-09T11:12:59.764Z,1.95
2022-11-09T11:15:38.477Z,1.30
2022-11-09T11:18:13.065Z,1.40
2022-11-09T11:20:39.554Z,1.40
2022-11-09T11:23:11.172Z,1.30
2022-11-09T11:25:58.064Z,1.65
2022-11-09T11:28:33.803Z,1.33
2022-11-09T11:31:00.438Z,1.27
2022-11-09T11:33:26.949Z,1.67
2022-11-09T11:36:04.999Z,1.33
2022-11-09T11:39:12.838Z,1.27
2022-11-09T11:41:39.432Z,1.42
2022-11-09T11:44:41.909Z,1.50
2022-11-09T11:47:41.466Z,1.30
2022-11-09T11:50:32.867Z,1.50
2022-11-09T11:52:59.624Z,1.10
2022-11-09T11:55:31.818Z,1.02
2022-11-09T11:58:13.511Z,1.00
2022-11-09T12:00:49.524Z,1.30
2022-11-09T12:03:39.115Z,1.83
2022-11-09T12:06:23.543Z,0.98
2022-11-09T12:09:18.330Z,1.88
2022-11-09T12:12:01.163Z,1.15
2022-11-09T12:14:56.613Z,1.00
2022-11-09T12:17:46.185Z,0.93
2022-11-09T12:20:25.239Z,1.00
2022-11-09T12:23:15.394Z,1.00
2022-11-09T12:26:22.877Z,1.50
2022-11-09T12:29:05.632Z,0.98
2022-11-09T12:31:59.957Z,1.00
2022-11-09T12:34:38.871Z,1.02
2022-11-09T12:37:13.283Z,1.25
2022-11-09T12:39:53.486Z,1.30
2022-11-09T12:42:37.419Z,1.00
2022-11-09T12:45:24.734Z,0.90
2022-11-09T12:47:54.658Z,2.00
2022-11-09T12:50:25.399Z,1.10
2022-11-09T12:52:52.777Z,1.40
2022-11-09T12:55:27.189Z,1.50
2022-11-09T12:58:00.536Z,0.95
2022-11-09T13:00:33.815Z,0.90
2022-11-09T13:03:15.248Z,1.13
2022-11-09T13:05:43.216Z,1.08
2022-11-09T13:08:19.033Z,1.30
2022-11-09T13:10:45.538Z,0.90
2022-11-09T13:13:12.109Z,1.52
2022-11-09T13:15:39.997Z,1.23
2022-11-09T13:18:46.052Z,1.50
2022-11-09T13:21:25.234Z,1.45
2022-11-09T13:24:01.266Z,1.73
2022-11-09T13:26:31.749Z,1.38
2022-11-09T13:29:23.111Z,1.10
2022-11-09T13:32:11.015Z,1.17
2022-11-09T13:34:54.503Z,2.67
2022-11-09T13:37:42.450Z,0.98
2022-11-09T13:40:35.877Z,1.38
2022-11-09T13:43:05.745Z,1.70
2022-11-09T13:45:44.155Z,1.10
2022-11-09T13:48:29.305Z,1.20
2022-11-09T13:50:58.978Z,1.35
2022-11-09T13:53:37.603Z,1.10
2022-11-09T13:56:27.843Z,1.45
2022-11-09T13:58:59.261Z,1.27
2022-11-09T14:01:38.303Z,1.75
2022-11-09T14:04:07.036Z,1.10
2022-11-09T14:06:33.546Z,1.33
2022-11-09T14:09:01.323Z,1.35
2022-11-09T14:12:04.086Z,1.40
2022-11-09T14:14:36.136Z,1.35
2022-11-09T14:17:22.131Z,1.40
2022-11-09T14:19:54.441Z,1.20
2022-11-09T14:22:20.947Z,1.30
2022-11-09T14:24:47.398Z,1.58
2022-11-09T14:27:22.349Z,1.08
2022-11-09T14:29:57.103Z,1.40
2022-11-09T14:32:31.749Z,2.25
2022-11-09T14:35:22.377Z,1.52
2022-11-09T14:37:50.560Z,1.30
2022-11-09T14:40:30.887Z,1.10
2022-11-09T14:43:05.291Z,1.42
2022-11-09T14:45:31.684Z,1.50
2022-11-09T14:48:00.191Z,1.30
2022-11-09T14:50:32.188Z,1.42
2022-11-09T14:53:00.294Z,1.83
2022-11-09T14:55:27.289Z,1.40
2022-11-09T14:57:55.764Z,1.80
2022-11-09T15:00:29.179Z,1.52
2022-11-09T15:02:56.817Z,1.50
2022-11-09T15:05:39.880Z,2.17
2022-11-09T15:08:20.214Z,1.75
2022-11-09T15:10:52.231Z,2.08
2022-11-09T15:13:27.795Z,1.40
2022-11-09T15:15:55.141Z,1.65
2022-11-09T15:18:33.450Z,1.40
2022-11-09T15:21:25.463Z,1.60
2022-11-09T15:24:10.046Z,1.67
2022-11-09T15:26:44.296Z,1.92
2022-11-09T15:29:37.198Z,2.83
2022-11-09T15:32:16.577Z,1.60
2022-11-09T15:34:56.350Z,2.42
2022-11-09T15:37:25.203Z,1.80
2022-11-09T15:39:51.861Z,1.60
2022-11-09T15:42:18.599Z,2.67
2022-11-09T15:44:45.022Z,2.15
2022-11-09T15:47:34.232Z,2.20
2022-11-09T15:50:07.860Z,2.28
2022-11-09T15:52:35.616Z,2.20
2022-11-09T15:55:02.016Z,2.08
2022-11-09T15:57:28.666Z,1.70
2022-11-09T15:59:55.266Z,1.50
2022-11-09T16:02:21.639Z,1.55
2022-11-09T16:04:48.033Z,1.45
2022-11-09T16:07:17.023Z,1.60
2022-11-09T16:09:43.835Z,1.67
2022-11-09T16:12:10.290Z,1.58
2022-11-09T16:14:38.306Z,1.40
2022-11-09T16:17:05.484Z,1.30
2022-11-09T16:19:31.978Z,1.55
2022-11-09T16:21:59.025Z,1.42
2022-11-09T16:24:25.659Z,1.42
2022-11-09T16:26:54.030Z,2.00
2022-11-09T16:29:23.630Z,1.95
2022-11-09T16:31:52.403Z,1.60
2022-11-09T16:34:19.837Z,1.60
2022-11-09T16:36:52.338Z,1.50
2022-11-09T16:39:22.105Z,1.30
2022-11-09T16:41:50.075Z,1.40
2022-11-09T16:44:20.757Z,1.20
2022-11-09T16:46:48.162Z,1.40
2022-11-09T16:49:14.835Z,1.35
2022-11-09T16:51:41.224Z,1.70
2022-11-09T16:54:07.801Z,2.83
2022-11-09T16:56:35.267Z,2.50
2022-11-09T16:59:01.848Z,1.77
2022-11-09T17:01:28.374Z,1.60
2022-11-09T17:03:56.276Z,1.92
2022-11-09T17:06:22.854Z,1.90
2022-11-09T17:08:49.462Z,1.92
2022-11-09T17:11:16.199Z,2.88
2022-11-09T17:13:42.919Z,2.47
2022-11-09T17:16:12.168Z,2.10
2022-11-09T17:18:39.397Z,4.90
2022-11-09T17:21:10.596Z,4.65
2022-11-09T17:23:37.981Z,3.15
2022-11-09T17:26:06.569Z,2.38
2022-11-09T17:31:06.714Z,2.35
2022-11-09T17:33:33.089Z,10.48
2022-11-09T17:36:01.344Z,11.82
2022-11-09T17:38:29.444Z,7.20
2022-11-09T17:41:04.292Z,8.65
2022-11-09T17:43:32.651Z,9.63
2022-11-09T17:46:07.071Z,6.50
2022-11-09T17:48:35.581Z,12.10
2022-11-09T17:51:02.964Z,8.10
2022-11-09T17:53:30.092Z,5.82
2022-11-09T17:55:56.643Z,8.52
2022-11-09T17:58:23.701Z,3.72
2022-11-09T18:00:51.618Z,2.70
2022-11-09T18:03:18.217Z,3.03
2022-11-09T18:05:45.574Z,2.25
2022-11-09T18:08:14.920Z,2.60
2022-11-09T18:10:43.897Z,1.90
2022-11-09T18:13:10.551Z,4.72
2022-11-09T18:15:37.744Z,3.20
2022-11-09T18:18:05.312Z,2.25
2022-11-09T18:20:32.290Z,2.25
2022-11-09T18:22:58.736Z,3.17
2022-11-09T18:25:26.707Z,1.85
2022-11-09T18:27:53.034Z,2.40
2022-11-09T18:30:19.822Z,2.00
2022-11-09T18:32:46.633Z,1.92
2022-11-09T18:35:12.972Z,2.40
2022-11-09T18:37:39.728Z,2.00
2022-11-09T18:40:07.395Z,2.53
2022-11-09T18:42:33.920Z,2.30
2022-11-09T18:45:01.082Z,2.42
2022-11-09T18:47:30.738Z,2.40
2022-11-09T18:49:57.070Z,2.47
2022-11-09T18:52:23.432Z,2.78
2022-11-09T18:54:49.848Z,3.08
2022-11-09T18:57:19.781Z,2.72
2022-11-09T18:59:46.607Z,3.05
2022-11-09T19:02:13.951Z,2.88
2022-11-09T19:04:40.370Z,2.20
2022-11-09T19:07:06.820Z,1.92
2022-11-09T19:09:38.806Z,2.25
2022-11-09T19:12:08.734Z,2.20
2022-11-09T19:14:43.951Z,2.83
2022-11-09T19:17:15.114Z,2.33
2022-11-09T19:19:42.202Z,1.50
2022-11-09T19:22:15.250Z,1.75
2022-11-09T19:24:41.897Z,2.00
2022-11-09T19:27:08.984Z,2.03
2022-11-09T19:29:35.405Z,1.98
2022-11-09T19:32:02.048Z,1.92
2022-11-09T19:34:28.392Z,2.22
2022-11-09T19:36:54.909Z,2.00
2022-11-09T19:39:21.312Z,2.03
2022-11-09T19:41:48.541Z,1.90
2022-11-09T19:44:17.790Z,2.90
2022-11-09T19:46:44.343Z,2.15
2022-11-09T19:49:11.198Z,2.13
2022-11-09T19:51:38.677Z,2.50
2022-11-09T19:54:05.986Z,2.45
2022-11-09T19:56:33.341Z,2.22
2022-11-09T19:59:01.684Z,2.35
2022-11-09T20:01:29.062Z,2.25
2022-11-09T20:04:00.015Z,2.20
2022-11-09T20:06:27.680Z,2.22
2022-11-09T20:08:54.634Z,1.80
2022-11-09T20:11:43.281Z,2.33
2022-11-09T20:14:10.918Z,3.33
2022-11-09T20:16:38.358Z,2.55
2022-11-09T20:19:09.314Z,2.67
2022-11-09T20:21:36.596Z,3.35
2022-11-09T20:24:03.487Z,2.72
2022-11-09T20:26:29.854Z,2.30
2022-11-09T20:28:56.660Z,3.13
2022-11-09T20:31:23.490Z,5.00
2022-11-09T20:33:50.898Z,5.38
2022-11-09T20:36:18.991Z,2.85
2022-11-09T20:38:46.453Z,2.35
2022-11-09T20:41:13.194Z,1.95
2022-11-09T20:43:40.397Z,2.70
2022-11-09T20:46:09.813Z,1.95
2022-11-09T20:48:53.508Z,2.17
2022-11-09T20:51:21.526Z,2.38
2022-11-09T20:53:52.544Z,2.70
2022-11-09T20:56:20.289Z,4.22
2022-11-09T20:58:47.148Z,3.93
2022-11-09T21:01:27.305Z,2.38
2022-11-09T21:03:54.264Z,2.05
2022-11-09T21:06:23.794Z,2.05
2022-11-09T21:08:52.744Z,1.85
2022-11-09T21:11:20.206Z,2.70
2022-11-09T21:13:53.615Z,3.38
2022-11-09T21:16:21.448Z,3.78
2022-11-09T21:18:48.512Z,3.20
2022-11-09T21:21:20.088Z,2.50
2022-11-09T21:24:05.316Z,2.55
2022-11-09T21:26:50.884Z,2.65
2022-11-09T21:29:38.156Z,2.63
2022-11-09T21:32:05.815Z,2.90
2022-11-09T21:34:36.458Z,2.28
2022-11-09T21:37:03.846Z,2.30
2022-11-09T21:39:30.248Z,2.25
2022-11-09T21:41:57.498Z,2.28
2022-11-09T21:44:24.817Z,2.65
2022-11-09T21:46:51.364Z,2.30
2022-11-09T21:49:17.902Z,1.98
2022-11-09T21:51:46.692Z,2.40
2022-11-09T21:54:13.115Z,1.83
2022-11-09T21:56:39.701Z,1.95
2022-11-09T21:59:06.116Z,1.85
2022-11-09T22:01:32.794Z,2.00
2022-11-09T22:03:59.746Z,2.22
2022-11-09T22:06:26.871Z,2.53
2022-11-09T22:08:53.836Z,2.22
2022-11-09T22:11:46.031Z,1.90
2022-11-09T22:14:36.982Z,2.40
2022-11-09T22:17:05.412Z,2.53
2022-11-09T22:19:50.791Z,2.30
2022-11-09T22:22:17.184Z,2.80
2022-11-09T22:24:43.755Z,2.20
2022-11-09T22:27:10.133Z,2.88
2022-11-09T22:29:36.764Z,10.43
2022-11-09T22:32:03.521Z,12.15
2022-11-09T22:34:29.874Z,6.50
2022-11-09T22:36:56.435Z,8.52
2022-11-09T22:39:23.011Z,4.90
2022-11-09T22:41:49.642Z,5.35
2022-11-09T22:44:16.298Z,5.78
2022-11-09T22:46:42.839Z,3.95
2022-11-09T22:49:10.145Z,3.20
2022-11-09T22:51:36.539Z,4.28
2022-11-09T22:54:03.154Z,2.20
2022-11-09T22:56:29.511Z,2.72
2022-11-09T22:58:56.117Z,2.55
2022-11-09T23:01:25.052Z,5.22
2022-11-09T23:03:52.160Z,3.90
2022-11-09T23:06:21.112Z,2.50
2022-11-09T23:08:48.867Z,2.45
2022-11-09T23:11:19.100Z,2.63
2022-11-09T23:13:49.789Z,2.35
2022-11-09T23:16:16.397Z,3.22
2022-11-09T23:18:55.628Z,2.30
2022-11-09T23:21:29.610Z,2.13
2022-11-09T23:23:59.532Z,2.28
2022-11-09T23:26:27.533Z,2.38
2022-11-09T23:28:54.822Z,2.53
2022-11-09T23:31:25.952Z,1.95
2022-11-09T23:33:54.546Z,2.20
2022-11-09T23:38:48.281Z,2.30
2022-11-09T23:41:15.597Z,3.08
2022-11-09T23:43:47.644Z,2.92
2022-11-09T23:46:15.769Z,3.08
2022-11-09T23:48:42.649Z,4.30
2022-11-09T23:51:09.537Z,3.67
2022-11-09T23:53:36.379Z,3.00
2022-11-09T23:56:06.944Z,2.65
2022-11-09T23:58:34.091Z,2.65
